Barnard, Kansas
Current Conditions -  °F | °C
As of 4:55 PM on Sunday 21 Dec 2014 (Local Time) from KCNK Reporting Station
Haze Haze  
Wind Chill: 36°   Ceiling: 500
Heat Index: 42°   Visibility: 5mi
Dew Point: 41°   Wind: 12mph
Humidity: 96%   Direction: 160°SSE
Pressure: 29.68"   Gusts: NA
Location:  39.19°N, 98.04°W
Report Text: KCNK 212255Z AUTO 16010KT 5SM BR OVC005 06/05 A2968 RMK AO2 SLP058 T00560050
Loading
Personal Weather Stations






























Interactive Weather Map New forecast layout! Learn more

10-Day Weather Forecast

Advertisements
Track Severe Weather on mobile